sensor_id;sensor_type;location;lat;lon;timestamp;P1;durP1;ratioP1;P2;durP2;ratioP2
51692;SDS011;37777;53.066;21.638;2023-06-05T00:06:54;8.23;;;5.15;;
51692;SDS011;37777;53.066;21.638;2023-06-05T00:13:58;5.20;;;4.50;;
51692;SDS011;37777;53.066;21.638;2023-06-05T00:21:00;6.40;;;4.88;;
51692;SDS011;37777;53.066;21.638;2023-06-05T00:28:02;7.13;;;4.10;;
51692;SDS011;37777;53.066;21.638;2023-06-05T00:35:05;7.40;;;4.70;;
51692;SDS011;37777;53.066;21.638;2023-06-05T00:42:08;5.25;;;4.10;;
51692;SDS011;37777;53.066;21.638;2023-06-05T00:49:10;5.43;;;4.47;;
51692;SDS011;37777;53.066;21.638;2023-06-05T00:56:13;6.90;;;4.80;;
51692;SDS011;37777;53.066;21.638;2023-06-05T01:03:15;4.55;;;4.15;;
51692;SDS011;37777;53.066;21.638;2023-06-05T01:10:19;4.95;;;4.43;;
51692;SDS011;37777;53.066;21.638;2023-06-05T01:17:21;5.45;;;4.50;;
51692;SDS011;37777;53.066;21.638;2023-06-05T01:24:26;5.53;;;4.45;;
51692;SDS011;37777;53.066;21.638;2023-06-05T01:31:32;5.85;;;4.20;;
51692;SDS011;37777;53.066;21.638;2023-06-05T01:38:38;6.90;;;4.30;;
51692;SDS011;37777;53.066;21.638;2023-06-05T01:45:42;5.65;;;5.00;;
51692;SDS011;37777;53.066;21.638;2023-06-05T01:52:44;5.13;;;4.25;;
51692;SDS011;37777;53.066;21.638;2023-06-05T01:59:48;6.75;;;4.60;;
51692;SDS011;37777;53.066;21.638;2023-06-05T02:06:51;6.30;;;4.57;;
51692;SDS011;37777;53.066;21.638;2023-06-05T02:13:55;6.07;;;4.90;;
51692;SDS011;37777;53.066;21.638;2023-06-05T02:20:57;6.55;;;4.38;;
51692;SDS011;37777;53.066;21.638;2023-06-05T02:27:59;7.00;;;4.50;;
51692;SDS011;37777;53.066;21.638;2023-06-05T02:35:01;7.38;;;5.45;;
51692;SDS011;37777;53.066;21.638;2023-06-05T02:42:06;6.82;;;5.50;;
51692;SDS011;37777;53.066;21.638;2023-06-05T02:49:10;5.72;;;4.95;;
51692;SDS011;37777;53.066;21.638;2023-06-05T02:56:12;7.18;;;4.97;;
51692;SDS011;37777;53.066;21.638;2023-06-05T03:03:15;5.35;;;4.80;;
51692;SDS011;37777;53.066;21.638;2023-06-05T03:10:19;12.93;;;5.53;;
51692;SDS011;37777;53.066;21.638;2023-06-05T03:17:22;6.82;;;4.97;;
51692;SDS011;37777;53.066;21.638;2023-06-05T03:24:25;6.60;;;5.30;;
51692;SDS011;37777;53.066;21.638;2023-06-05T03:31:29;8.63;;;5.00;;
51692;SDS011;37777;53.066;21.638;2023-06-05T03:38:32;5.82;;;5.25;;
51692;SDS011;37777;53.066;21.638;2023-06-05T03:45:35;10.23;;;5.63;;
51692;SDS011;37777;53.066;21.638;2023-06-05T03:52:38;5.80;;;5.20;;
51692;SDS011;37777;53.066;21.638;2023-06-05T03:59:41;10.07;;;6.15;;
51692;SDS011;37777;53.066;21.638;2023-06-05T04:06:43;12.52;;;8.88;;
51692;SDS011;37777;53.066;21.638;2023-06-05T04:13:45;18.95;;;8.80;;
51692;SDS011;37777;53.066;21.638;2023-06-05T04:20:47;19.10;;;7.45;;
51692;SDS011;37777;53.066;21.638;2023-06-05T04:27:49;12.52;;;6.75;;
51692;SDS011;37777;53.066;21.638;2023-06-05T04:34:52;13.10;;;6.78;;
51692;SDS011;37777;53.066;21.638;2023-06-05T04:41:55;12.77;;;7.15;;
51692;SDS011;37777;53.066;21.638;2023-06-05T04:49:15;12.82;;;6.45;;
51692;SDS011;37777;53.066;21.638;2023-06-05T04:56:19;10.60;;;6.38;;
51692;SDS011;37777;53.066;21.638;2023-06-05T05:03:25;12.35;;;5.97;;
51692;SDS011;37777;53.066;21.638;2023-06-05T05:10:34;14.70;;;7.27;;
51692;SDS011;37777;53.066;21.638;2023-06-05T05:17:42;14.48;;;7.20;;
51692;SDS011;37777;53.066;21.638;2023-06-05T05:24:50;19.17;;;6.30;;
51692;SDS011;37777;53.066;21.638;2023-06-05T05:31:56;11.80;;;6.32;;
51692;SDS011;37777;53.066;21.638;2023-06-05T05:39:00;11.25;;;5.57;;
51692;SDS011;37777;53.066;21.638;2023-06-05T05:46:11;14.23;;;5.45;;
51692;SDS011;37777;53.066;21.638;2023-06-05T05:53:16;9.57;;;4.70;;
51692;SDS011;37777;53.066;21.638;2023-06-05T06:00:19;8.57;;;4.25;;
51692;SDS011;37777;53.066;21.638;2023-06-05T06:07:23;8.13;;;3.58;;
51692;SDS011;37777;53.066;21.638;2023-06-05T06:14:25;4.93;;;3.10;;
51692;SDS011;37777;53.066;21.638;2023-06-05T06:21:27;3.58;;;3.25;;
51692;SDS011;37777;53.066;21.638;2023-06-05T06:28:29;3.72;;;2.80;;
51692;SDS011;37777;53.066;21.638;2023-06-05T06:35:32;13.88;;;3.75;;
51692;SDS011;37777;53.066;21.638;2023-06-05T06:42:35;8.32;;;2.80;;
51692;SDS011;37777;53.066;21.638;2023-06-05T06:49:38;4.20;;;2.63;;
51692;SDS011;37777;53.066;21.638;2023-06-05T06:56:43;5.30;;;3.17;;
51692;SDS011;37777;53.066;21.638;2023-06-05T07:03:46;3.90;;;2.80;;
51692;SDS011;37777;53.066;21.638;2023-06-05T07:10:48;4.45;;;2.92;;
51692;SDS011;37777;53.066;21.638;2023-06-05T07:17:50;6.70;;;2.85;;
51692;SDS011;37777;53.066;21.638;2023-06-05T07:24:52;4.32;;;3.92;;
51692;SDS011;37777;53.066;21.638;2023-06-05T07:31:55;3.63;;;2.63;;
51692;SDS011;37777;53.066;21.638;2023-06-05T07:38:58;9.93;;;3.20;;
51692;SDS011;37777;53.066;21.638;2023-06-05T07:46:00;6.13;;;3.05;;
51692;SDS011;37777;53.066;21.638;2023-06-05T07:53:02;3.95;;;3.35;;
51692;SDS011;37777;53.066;21.638;2023-06-05T08:00:04;5.63;;;2.88;;
51692;SDS011;37777;53.066;21.638;2023-06-05T08:07:07;4.95;;;3.83;;
51692;SDS011;37777;53.066;21.638;2023-06-05T08:14:09;4.45;;;4.15;;
51692;SDS011;37777;53.066;21.638;2023-06-05T08:21:12;3.50;;;3.30;;
51692;SDS011;37777;53.066;21.638;2023-06-05T08:28:15;4.22;;;3.10;;
51692;SDS011;37777;53.066;21.638;2023-06-05T08:35:17;5.97;;;3.65;;
51692;SDS011;37777;53.066;21.638;2023-06-05T08:42:19;8.52;;;7.47;;
51692;SDS011;37777;53.066;21.638;2023-06-05T08:49:22;4.13;;;3.83;;
51692;SDS011;37777;53.066;21.638;2023-06-05T08:56:27;4.22;;;3.90;;
51692;SDS011;37777;53.066;21.638;2023-06-05T09:03:32;5.35;;;3.78;;
51692;SDS011;37777;53.066;21.638;2023-06-05T09:10:35;7.28;;;6.57;;
51692;SDS011;37777;53.066;21.638;2023-06-05T09:17:37;5.63;;;5.10;;
51692;SDS011;37777;53.066;21.638;2023-06-05T09:24:39;4.50;;;4.20;;
51692;SDS011;37777;53.066;21.638;2023-06-05T09:31:42;5.28;;;4.32;;
51692;SDS011;37777;53.066;21.638;2023-06-05T09:38:44;7.30;;;4.63;;
51692;SDS011;37777;53.066;21.638;2023-06-05T09:45:47;3.65;;;3.38;;
51692;SDS011;37777;53.066;21.638;2023-06-05T09:52:49;4.55;;;4.13;;
51692;SDS011;37777;53.066;21.638;2023-06-05T09:59:54;3.33;;;2.92;;
51692;SDS011;37777;53.066;21.638;2023-06-05T10:06:59;5.32;;;4.97;;
51692;SDS011;37777;53.066;21.638;2023-06-05T10:14:03;4.13;;;3.85;;
51692;SDS011;37777;53.066;21.638;2023-06-05T10:21:06;4.78;;;4.07;;
51692;SDS011;37777;53.066;21.638;2023-06-05T10:35:28;5.40;;;5.00;;
51692;SDS011;37777;53.066;21.638;2023-06-05T10:42:43;6.13;;;5.47;;
51692;SDS011;37777;53.066;21.638;2023-06-05T10:49:58;5.75;;;5.38;;
51692;SDS011;37777;53.066;21.638;2023-06-05T10:57:22;5.50;;;5.18;;
51692;SDS011;37777;53.066;21.638;2023-06-05T11:04:25;5.93;;;5.50;;
51692;SDS011;37777;53.066;21.638;2023-06-05T11:11:27;6.50;;;6.00;;
51692;SDS011;37777;53.066;21.638;2023-06-05T11:18:30;5.07;;;4.75;;
51692;SDS011;37777;53.066;21.638;2023-06-05T11:25:33;6.38;;;5.90;;
51692;SDS011;37777;53.066;21.638;2023-06-05T11:32:35;7.60;;;6.13;;
51692;SDS011;37777;53.066;21.638;2023-06-05T11:39:42;4.80;;;4.40;;
51692;SDS011;37777;53.066;21.638;2023-06-05T11:46:44;5.93;;;5.45;;
51692;SDS011;37777;53.066;21.638;2023-06-05T11:53:46;6.53;;;5.90;;
51692;SDS011;37777;53.066;21.638;2023-06-05T12:00:49;7.68;;;5.80;;
51692;SDS011;37777;53.066;21.638;2023-06-05T12:07:52;5.43;;;5.00;;
51692;SDS011;37777;53.066;21.638;2023-06-05T12:14:55;5.80;;;5.35;;
51692;SDS011;37777;53.066;21.638;2023-06-05T12:22:03;5.68;;;5.28;;
51692;SDS011;37777;53.066;21.638;2023-06-05T12:29:08;4.68;;;4.38;;
51692;SDS011;37777;53.066;21.638;2023-06-05T12:36:13;5.97;;;5.40;;
51692;SDS011;37777;53.066;21.638;2023-06-05T12:43:18;6.72;;;6.28;;
51692;SDS011;37777;53.066;21.638;2023-06-05T12:50:20;6.90;;;6.30;;
51692;SDS011;37777;53.066;21.638;2023-06-05T12:57:23;7.50;;;6.90;;
51692;SDS011;37777;53.066;21.638;2023-06-05T13:04:25;7.43;;;6.85;;
51692;SDS011;37777;53.066;21.638;2023-06-05T13:11:27;7.88;;;7.18;;
51692;SDS011;37777;53.066;21.638;2023-06-05T13:18:30;7.22;;;6.57;;
51692;SDS011;37777;53.066;21.638;2023-06-05T13:25:32;7.13;;;6.40;;
51692;SDS011;37777;53.066;21.638;2023-06-05T13:32:39;7.22;;;6.63;;
51692;SDS011;37777;53.066;21.638;2023-06-05T13:39:43;6.53;;;5.93;;
51692;SDS011;37777;53.066;21.638;2023-06-05T13:46:47;7.47;;;6.97;;
51692;SDS011;37777;53.066;21.638;2023-06-05T13:53:53;7.40;;;6.80;;
51692;SDS011;37777;53.066;21.638;2023-06-05T14:01:01;7.80;;;7.10;;
51692;SDS011;37777;53.066;21.638;2023-06-05T14:08:06;9.93;;;7.20;;
51692;SDS011;37777;53.066;21.638;2023-06-05T14:15:09;7.25;;;6.75;;
51692;SDS011;37777;53.066;21.638;2023-06-05T14:22:11;7.43;;;6.93;;
51692;SDS011;37777;53.066;21.638;2023-06-05T14:29:13;9.93;;;6.30;;
51692;SDS011;37777;53.066;21.638;2023-06-05T14:36:15;8.25;;;7.55;;
51692;SDS011;37777;53.066;21.638;2023-06-05T14:43:18;7.30;;;6.70;;
51692;SDS011;37777;53.066;21.638;2023-06-05T14:50:20;13.07;;;7.65;;
51692;SDS011;37777;53.066;21.638;2023-06-05T14:57:22;8.48;;;7.35;;
51692;SDS011;37777;53.066;21.638;2023-06-05T15:04:25;7.22;;;6.72;;
51692;SDS011;37777;53.066;21.638;2023-06-05T15:11:32;7.75;;;7.25;;
51692;SDS011;37777;53.066;21.638;2023-06-05T15:18:34;7.85;;;5.70;;
51692;SDS011;37777;53.066;21.638;2023-06-05T15:25:36;6.80;;;6.20;;
51692;SDS011;37777;53.066;21.638;2023-06-05T15:32:38;6.43;;;5.93;;
51692;SDS011;37777;53.066;21.638;2023-06-05T15:39:41;8.18;;;7.55;;
51692;SDS011;37777;53.066;21.638;2023-06-05T15:46:45;7.60;;;6.82;;
51692;SDS011;37777;53.066;21.638;2023-06-05T15:53:48;7.75;;;7.15;;
51692;SDS011;37777;53.066;21.638;2023-06-05T16:01:04;8.95;;;8.13;;
51692;SDS011;37777;53.066;21.638;2023-06-05T16:08:12;7.15;;;6.45;;
51692;SDS011;37777;53.066;21.638;2023-06-05T16:15:20;7.93;;;6.90;;
51692;SDS011;37777;53.066;21.638;2023-06-05T16:22:29;7.80;;;7.20;;
51692;SDS011;37777;53.066;21.638;2023-06-05T16:29:36;6.13;;;4.38;;
51692;SDS011;37777;53.066;21.638;2023-06-05T16:36:45;6.25;;;4.43;;
51692;SDS011;37777;53.066;21.638;2023-06-05T16:50:55;5.97;;;5.47;;
51692;SDS011;37777;53.066;21.638;2023-06-05T16:57:59;6.68;;;6.07;;
51692;SDS011;37777;53.066;21.638;2023-06-05T17:05:04;7.68;;;7.05;;
51692;SDS011;37777;53.066;21.638;2023-06-05T17:12:11;7.28;;;6.78;;
51692;SDS011;37777;53.066;21.638;2023-06-05T17:19:18;10.80;;;7.07;;
51692;SDS011;37777;53.066;21.638;2023-06-05T17:26:24;17.42;;;7.30;;
51692;SDS011;37777;53.066;21.638;2023-06-05T17:33:32;9.63;;;6.45;;
51692;SDS011;37777;53.066;21.638;2023-06-05T17:40:38;7.13;;;6.53;;
51692;SDS011;37777;53.066;21.638;2023-06-05T17:47:45;9.20;;;4.40;;
51692;SDS011;37777;53.066;21.638;2023-06-05T17:54:51;7.88;;;5.45;;
51692;SDS011;37777;53.066;21.638;2023-06-05T18:01:55;9.20;;;4.65;;
51692;SDS011;37777;53.066;21.638;2023-06-05T18:09:09;12.20;;;6.32;;
51692;SDS011;37777;53.066;21.638;2023-06-05T18:16:17;12.40;;;6.63;;
51692;SDS011;37777;53.066;21.638;2023-06-05T18:23:24;6.33;;;5.73;;
51692;SDS011;37777;53.066;21.638;2023-06-05T18:30:31;9.02;;;4.97;;
51692;SDS011;37777;53.066;21.638;2023-06-05T18:37:40;5.60;;;4.78;;
51692;SDS011;37777;53.066;21.638;2023-06-05T18:44:48;4.10;;;3.33;;
51692;SDS011;37777;53.066;21.638;2023-06-05T18:51:55;5.40;;;4.43;;
51692;SDS011;37777;53.066;21.638;2023-06-05T18:59:01;4.53;;;3.95;;
51692;SDS011;37777;53.066;21.638;2023-06-05T19:06:10;6.63;;;3.40;;
51692;SDS011;37777;53.066;21.638;2023-06-05T19:13:17;4.17;;;3.03;;
51692;SDS011;37777;53.066;21.638;2023-06-05T19:20:33;4.70;;;3.70;;
51692;SDS011;37777;53.066;21.638;2023-06-05T19:27:41;5.50;;;4.30;;
51692;SDS011;37777;53.066;21.638;2023-06-05T19:34:49;4.88;;;4.05;;
51692;SDS011;37777;53.066;21.638;2023-06-05T19:41:55;9.32;;;4.63;;
51692;SDS011;37777;53.066;21.638;2023-06-05T19:49:01;7.57;;;4.18;;
51692;SDS011;37777;53.066;21.638;2023-06-05T19:56:08;6.15;;;3.83;;
51692;SDS011;37777;53.066;21.638;2023-06-05T20:03:13;3.85;;;3.47;;
51692;SDS011;37777;53.066;21.638;2023-06-05T20:10:21;4.95;;;3.67;;
51692;SDS011;37777;53.066;21.638;2023-06-05T20:17:36;7.63;;;3.45;;
51692;SDS011;37777;53.066;21.638;2023-06-05T20:24:40;18.00;;;3.78;;
51692;SDS011;37777;53.066;21.638;2023-06-05T20:31:43;7.72;;;3.58;;
51692;SDS011;37777;53.066;21.638;2023-06-05T20:38:45;7.20;;;3.78;;
51692;SDS011;37777;53.066;21.638;2023-06-05T20:45:47;5.05;;;3.78;;
51692;SDS011;37777;53.066;21.638;2023-06-05T20:52:49;7.75;;;3.50;;
51692;SDS011;37777;53.066;21.638;2023-06-05T20:59:52;5.78;;;3.65;;
51692;SDS011;37777;53.066;21.638;2023-06-05T21:06:54;8.18;;;4.15;;
51692;SDS011;37777;53.066;21.638;2023-06-05T21:13:56;5.75;;;3.80;;
51692;SDS011;37777;53.066;21.638;2023-06-05T21:20:58;5.22;;;3.47;;
51692;SDS011;37777;53.066;21.638;2023-06-05T21:28:00;5.30;;;3.42;;
51692;SDS011;37777;53.066;21.638;2023-06-05T21:35:02;7.78;;;3.83;;
51692;SDS011;37777;53.066;21.638;2023-06-05T21:42:05;7.25;;;4.22;;
51692;SDS011;37777;53.066;21.638;2023-06-05T21:49:14;11.68;;;4.80;;
51692;SDS011;37777;53.066;21.638;2023-06-05T21:56:17;7.25;;;4.57;;
51692;SDS011;37777;53.066;21.638;2023-06-05T22:03:19;6.55;;;4.43;;
51692;SDS011;37777;53.066;21.638;2023-06-05T22:10:21;6.32;;;4.10;;
51692;SDS011;37777;53.066;21.638;2023-06-05T22:17:24;7.25;;;4.30;;
51692;SDS011;37777;53.066;21.638;2023-06-05T22:24:27;9.80;;;4.50;;
51692;SDS011;37777;53.066;21.638;2023-06-05T22:31:29;4.95;;;3.97;;
51692;SDS011;37777;53.066;21.638;2023-06-05T22:38:32;7.15;;;4.47;;
51692;SDS011;37777;53.066;21.638;2023-06-05T22:45:34;13.18;;;5.00;;
51692;SDS011;37777;53.066;21.638;2023-06-05T22:52:36;8.70;;;4.63;;
51692;SDS011;37777;53.066;21.638;2023-06-05T22:59:39;8.38;;;4.78;;
51692;SDS011;37777;53.066;21.638;2023-06-05T23:06:42;6.00;;;4.05;;
51692;SDS011;37777;53.066;21.638;2023-06-05T23:13:46;5.10;;;4.05;;
51692;SDS011;37777;53.066;21.638;2023-06-05T23:20:48;6.88;;;3.95;;
51692;SDS011;37777;53.066;21.638;2023-06-05T23:27:50;4.40;;;4.00;;
51692;SDS011;37777;53.066;21.638;2023-06-05T23:34:52;4.60;;;3.83;;
51692;SDS011;37777;53.066;21.638;2023-06-05T23:41:54;5.80;;;4.00;;
51692;SDS011;37777;53.066;21.638;2023-06-05T23:48:57;10.73;;;3.70;;
51692;SDS011;37777;53.066;21.638;2023-06-05T23:56:00;4.72;;;3.70;;
